Time;durP1;ratioP1;P1;durP2;ratioP2;P2;SDS_P1;SDS_P2;PMS_P1;PMS_P2;Temp;Humidity;BMP_temperature;BMP_pressure;BME280_temperature;BME280_humidity;BME280_pressure;Samples;Min_cycle;Max_cycle;Signal;HPM_P1;HPM_P2
2021/10/26 00:01:12;;;;;;;14.10;11.40;;;11.50;98.30;;;;;;5177131;22;21085;-83
2021/10/26 00:03:15;;;;;;;16.17;12.17;;;11.50;98.30;;;;;;5174283;22;20432;-83
2021/10/26 00:05:18;;;;;;;17.23;11.30;;;11.50;98.30;;;;;;5165707;22;20514;-83
2021/10/26 00:07:21;;;;;;;18.77;13.90;;;11.50;98.30;;;;;;5165524;22;20937;-83
2021/10/26 00:09:24;;;;;;;22.23;14.80;;;11.40;98.30;;;;;;5174456;22;20440;-82
2021/10/26 00:11:27;;;;;;;20.20;15.27;;;11.30;98.30;;;;;;5165940;22;20511;-82
2021/10/26 00:13:30;;;;;;;23.20;16.83;;;11.30;98.30;;;;;;5174167;22;20421;-83
2021/10/26 00:15:35;;;;;;;25.50;17.83;;;11.20;98.30;;;;;;5168426;22;20428;-83
2021/10/26 00:17:38;;;;;;;20.17;15.97;;;11.20;98.30;;;;;;5177350;22;20412;-84
2021/10/26 00:19:41;;;;;;;21.53;17.77;;;11.10;98.30;;;;;;5170633;22;20506;-83
2021/10/26 00:21:45;;;;;;;24.83;18.57;;;11.10;98.30;;;;;;5171036;22;20438;-83
2021/10/26 00:23:48;;;;;;;25.00;18.60;;;11.10;98.30;;;;;;5170508;22;20497;-84
2021/10/26 00:25:51;;;;;;;26.20;18.87;;;11.00;98.30;;;;;;5178467;22;20424;-83
2021/10/26 00:27:54;;;;;;;31.87;21.50;;;11.00;98.30;;;;;;5170435;22;20459;-83
2021/10/26 00:29:57;;;;;;;27.93;19.90;;;11.00;98.30;;;;;;5178587;22;20446;-83
2021/10/26 00:32:01;;;;;;;29.30;21.07;;;11.00;98.30;;;;;;5170117;22;20929;-83
2021/10/26 00:34:04;;;;;;;30.10;20.90;;;10.90;98.30;;;;;;5178791;22;20427;-83
2021/10/26 00:36:07;;;;;;;27.40;21.08;;;10.90;98.30;;;;;;5170495;22;20462;-83
2021/10/26 00:38:10;;;;;;;28.70;20.00;;;10.90;98.30;;;;;;5172235;22;20430;-82
2021/10/26 00:40:15;;;;;;;26.40;21.07;;;10.90;98.30;;;;;;5171363;22;20450;-83
2021/10/26 00:42:18;;;;;;;31.70;21.98;;;10.80;98.30;;;;;;5171127;22;20539;-83
2021/10/26 00:44:21;;;;;;;27.00;20.92;;;10.80;98.30;;;;;;5176468;22;20176;-83
2021/10/26 00:46:29;;;;;;;28.33;21.08;;;10.80;98.30;;;;;;5176936;22;20220;-83
2021/10/26 00:48:33;;;;;;;26.50;20.20;;;10.80;98.30;;;;;;5170126;22;20176;-83
2021/10/26 00:50:37;;;;;;;35.05;21.52;;;10.90;98.30;;;;;;5179085;22;20465;-83
2021/10/26 00:52:43;;;;;;;31.33;23.07;;;10.80;98.30;;;;;;5179885;22;20183;-83
2021/10/26 00:54:46;;;;;;;30.27;21.10;;;10.80;98.30;;;;;;5170943;22;20431;-83
2021/10/26 00:56:54;;;;;;;33.23;22.30;;;10.80;98.30;;;;;;5178457;23;20673;-83
2021/10/26 00:58:58;;;;;;;32.30;23.60;;;10.80;98.30;;;;;;5171383;22;20836;-83
2021/10/26 01:01:01;;;;;;;46.83;24.53;;;10.80;98.30;;;;;;5180099;22;21105;-83
2021/10/26 01:03:04;;;;;;;35.17;23.27;;;10.70;98.30;;;;;;5180670;22;20434;-83
2021/10/26 01:05:09;;;;;;;35.73;22.70;;;10.70;98.30;;;;;;5172212;22;20423;-83
2021/10/26 01:07:13;;;;;;;30.70;23.75;;;10.80;98.30;;;;;;5172000;23;20473;-83
2021/10/26 01:09:17;;;;;;;35.53;24.33;;;10.80;98.30;;;;;;5169221;22;20185;-83
2021/10/26 01:11:20;;;;;;;39.70;25.40;;;10.80;98.30;;;;;;5177014;22;20458;-83
2021/10/26 01:13:24;;;;;;;36.72;25.35;;;10.80;98.30;;;;;;5168875;22;20435;-83
2021/10/26 01:15:28;;;;;;;39.13;25.37;;;10.80;98.30;;;;;;5169019;22;21054;-83
2021/10/26 01:17:31;;;;;;;36.63;24.33;;;10.80;98.30;;;;;;5177220;22;20472;-83
2021/10/26 01:19:44;;;;;;;45.23;26.37;;;10.80;98.30;;;;;;5178200;22;20908;-83
2021/10/26 01:21:47;;;;;;;39.03;27.05;;;10.80;98.30;;;;;;5169074;23;20408;-82
2021/10/26 01:23:51;;;;;;;42.93;25.70;;;10.90;98.30;;;;;;5169652;22;20557;-83
2021/10/26 01:25:54;;;;;;;40.73;27.73;;;10.80;98.30;;;;;;5169526;22;20428;-83
2021/10/26 01:27:57;;;;;;;42.33;28.53;;;10.90;98.30;;;;;;5177852;22;20459;-83
2021/10/26 01:30:00;;;;;;;43.77;28.90;;;10.90;98.30;;;;;;5168994;22;20531;-83
2021/10/26 01:32:04;;;;;;;42.30;26.40;;;10.90;98.30;;;;;;5177484;22;20430;-84
2021/10/26 01:34:08;;;;;;;41.57;26.70;;;10.90;98.30;;;;;;5177792;22;20451;-82
2021/10/26 01:36:14;;;;;;;43.70;27.00;;;10.90;98.30;;;;;;5177741;22;20480;-82
2021/10/26 01:38:17;;;;;;;42.78;27.25;;;10.90;98.30;;;;;;5180463;22;20438;-83
2021/10/26 01:40:21;;;;;;;39.67;29.33;;;10.90;98.30;;;;;;5190981;22;20445;-82
2021/10/26 01:42:24;;;;;;;41.53;26.20;;;10.90;98.30;;;;;;5182681;22;20443;-83
2021/10/26 01:44:27;;;;;;;40.27;29.17;;;10.90;98.30;;;;;;5189299;22;20495;-83
2021/10/26 01:46:30;;;;;;;41.88;28.52;;;10.80;98.30;;;;;;5188460;22;20520;-83
2021/10/26 01:48:34;;;;;;;41.13;28.70;;;10.80;98.30;;;;;;5183961;22;20490;-83
2021/10/26 01:50:37;;;;;;;40.00;26.63;;;10.90;98.30;;;;;;5171688;22;20449;-84
2021/10/26 01:52:42;;;;;;;43.43;28.57;;;10.90;98.30;;;;;;5179961;22;20188;-83
2021/10/26 01:54:45;;;;;;;42.40;28.40;;;10.90;98.30;;;;;;5168589;22;20435;-82
2021/10/26 01:56:48;;;;;;;41.30;27.33;;;10.90;98.30;;;;;;5167296;22;20946;-82
2021/10/26 01:58:51;;;;;;;41.53;28.30;;;11.00;98.30;;;;;;5167480;22;20916;-82
2021/10/26 02:00:54;;;;;;;45.15;28.13;;;11.00;98.30;;;;;;5176261;22;20177;-82
2021/10/26 02:02:58;;;;;;;40.83;27.60;;;11.00;98.30;;;;;;5175944;22;20196;-82
2021/10/26 02:05:01;;;;;;;42.33;28.23;;;11.00;98.30;;;;;;5167926;22;20483;-83
2021/10/26 02:07:05;;;;;;;42.33;28.93;;;11.00;98.30;;;;;;5167198;22;20450;-82
2021/10/26 02:09:09;;;;;;;38.10;27.90;;;11.00;98.30;;;;;;5175534;22;20443;-82
2021/10/26 02:11:12;;;;;;;43.63;28.63;;;10.90;98.30;;;;;;5176857;22;20527;-82
2021/10/26 02:13:15;;;;;;;47.70;30.40;;;10.90;98.30;;;;;;5176160;22;20496;-82
2021/10/26 02:15:18;;;;;;;38.77;27.00;;;10.90;98.30;;;;;;5168153;22;20515;-82
2021/10/26 02:17:21;;;;;;;39.73;27.70;;;10.90;98.30;;;;;;5176230;22;20447;-83
2021/10/26 02:19:24;;;;;;;39.23;28.30;;;10.90;98.30;;;;;;5168638;22;20432;-82
2021/10/26 02:21:27;;;;;;;37.90;26.00;;;10.90;98.30;;;;;;5168459;23;20499;-83
2021/10/26 02:23:30;;;;;;;39.27;27.70;;;10.90;98.30;;;;;;5169418;22;20753;-83
2021/10/26 02:25:35;;;;;;;41.10;26.80;;;11.00;98.30;;;;;;5177095;22;20523;-83
2021/10/26 02:27:38;;;;;;;46.33;27.37;;;11.00;98.30;;;;;;5176558;22;20459;-83
2021/10/26 02:29:41;;;;;;;38.87;26.33;;;10.90;98.30;;;;;;5175898;22;20436;-83
2021/10/26 02:31:44;;;;;;;39.47;26.33;;;10.90;98.30;;;;;;5168093;22;20873;-82
2021/10/26 02:33:47;;;;;;;37.13;27.20;;;10.90;98.30;;;;;;5175489;22;20424;-83
2021/10/26 02:35:50;;;;;;;39.17;26.80;;;10.90;98.30;;;;;;5175542;22;20420;-83
2021/10/26 02:37:53;;;;;;;40.20;26.73;;;10.90;98.30;;;;;;5174096;22;20424;-82
2021/10/26 02:39:56;;;;;;;39.23;25.57;;;10.90;98.30;;;;;;5167388;22;20455;-82
2021/10/26 02:42:00;;;;;;;44.00;28.40;;;10.90;98.30;;;;;;5175806;22;20417;-82
2021/10/26 02:44:04;;;;;;;37.55;25.90;;;10.90;98.30;;;;;;5168017;22;20518;-82
2021/10/26 02:46:07;;;;;;;40.95;27.40;;;10.90;98.30;;;;;;5176086;22;20684;-82
2021/10/26 02:48:11;;;;;;;39.80;25.60;;;10.90;98.30;;;;;;5175508;22;20432;-82
2021/10/26 02:50:14;;;;;;;41.20;27.20;;;10.90;98.30;;;;;;5176274;22;20179;-82
2021/10/26 02:52:17;;;;;;;43.87;26.37;;;10.90;98.30;;;;;;5176534;22;20419;-82
2021/10/26 02:54:20;;;;;;;37.40;25.50;;;10.90;98.30;;;;;;5168653;22;20474;-82
2021/10/26 02:56:23;;;;;;;44.47;28.57;;;10.90;98.30;;;;;;5176458;22;20460;-82
2021/10/26 02:58:27;;;;;;;35.90;25.50;;;10.90;98.30;;;;;;5176349;22;20491;-82
2021/10/26 03:00:30;;;;;;;39.27;27.03;;;10.90;98.30;;;;;;5168115;22;20217;-83
2021/10/26 03:02:34;;;;;;;38.58;24.90;;;10.80;98.30;;;;;;5176020;22;21193;-82
2021/10/26 03:04:37;;;;;;;39.03;25.98;;;10.80;98.30;;;;;;5175942;22;20626;-83
2021/10/26 03:06:43;;;;;;;38.03;26.90;;;10.80;98.30;;;;;;5165559;22;20571;-83
2021/10/26 03:08:47;;;;;;;40.70;26.77;;;10.80;98.30;;;;;;5174840;23;20432;-82
2021/10/26 03:10:50;;;;;;;42.72;27.23;;;10.80;98.30;;;;;;5166169;22;20654;-83
2021/10/26 03:12:53;;;;;;;39.42;26.38;;;10.80;98.30;;;;;;5174618;22;20507;-82
2021/10/26 03:14:57;;;;;;;43.03;26.40;;;10.80;98.30;;;;;;5166008;22;20539;-82
2021/10/26 03:17:00;;;;;;;42.00;26.40;;;10.80;98.30;;;;;;5174031;22;20859;-82
2021/10/26 03:19:05;;;;;;;35.50;26.00;;;10.80;98.30;;;;;;5175035;22;20424;-82
2021/10/26 03:21:08;;;;;;;40.23;27.20;;;10.80;98.30;;;;;;5174329;22;20414;-82
2021/10/26 03:23:11;;;;;;;41.67;27.00;;;10.80;98.30;;;;;;5174505;22;20500;-82
2021/10/26 03:25:15;;;;;;;37.50;24.87;;;10.80;98.30;;;;;;5173970;22;20432;-83
2021/10/26 03:27:18;;;;;;;44.60;28.90;;;10.80;98.30;;;;;;5173686;22;20511;-82
2021/10/26 03:29:21;;;;;;;46.17;28.75;;;10.70;98.30;;;;;;5175015;22;20793;-82
2021/10/26 03:31:25;;;;;;;44.10;28.83;;;10.80;98.30;;;;;;5174145;22;20269;-82
2021/10/26 03:33:29;;;;;;;49.53;27.57;;;10.80;98.30;;;;;;5174524;22;20430;-82
2021/10/26 03:35:32;;;;;;;43.60;28.63;;;10.80;98.30;;;;;;5175308;22;20427;-83
2021/10/26 03:37:37;;;;;;;47.43;28.70;;;10.80;98.30;;;;;;5174116;22;20427;-82
2021/10/26 03:39:40;;;;;;;39.67;29.93;;;10.80;98.30;;;;;;5167042;22;20473;-82
2021/10/26 03:41:43;;;;;;;41.10;27.20;;;10.70;98.30;;;;;;5175423;22;20492;-82
2021/10/26 03:43:46;;;;;;;43.88;28.17;;;10.70;98.30;;;;;;5175948;22;20508;-82
2021/10/26 03:45:49;;;;;;;40.37;26.57;;;10.70;98.30;;;;;;5174966;22;20675;-82
2021/10/26 03:47:53;;;;;;;42.87;28.07;;;10.70;98.30;;;;;;5166786;22;20432;-82
2021/10/26 03:49:56;;;;;;;52.90;28.67;;;10.70;98.30;;;;;;5175514;22;20431;-82
2021/10/26 03:51:59;;;;;;;41.57;29.83;;;10.60;98.30;;;;;;5176048;22;20449;-81
2021/10/26 03:54:02;;;;;;;42.80;27.33;;;10.60;98.30;;;;;;5175467;22;20431;-82
2021/10/26 03:56:08;;;;;;;49.97;29.17;;;10.60;98.30;;;;;;5175443;22;20446;-82
2021/10/26 03:58:11;;;;;;;42.00;28.03;;;10.60;98.30;;;;;;5167055;22;20279;-82
2021/10/26 04:00:15;;;;;;;41.53;27.13;;;10.50;98.30;;;;;;5175233;22;20968;-82
2021/10/26 04:02:22;;;;;;;44.80;29.23;;;10.50;98.30;;;;;;5175612;22;20503;-82
2021/10/26 04:04:27;;;;;;;48.00;29.37;;;10.50;98.30;;;;;;5167050;22;20444;-82
2021/10/26 04:06:31;;;;;;;42.20;28.20;;;10.50;98.30;;;;;;5167021;22;21339;-82
2021/10/26 04:08:39;;;;;;;52.73;29.40;;;10.50;98.30;;;;;;5175132;22;20505;-81
2021/10/26 04:10:47;;;;;;;47.83;35.60;;;10.50;98.30;;;;;;5175335;23;20424;-82
2021/10/26 04:12:50;;;;;;;49.50;30.30;;;10.50;98.30;;;;;;5176017;23;20435;-82
2021/10/26 04:14:55;;;;;;;46.42;29.35;;;10.50;98.30;;;;;;5175630;22;20422;-81
2021/10/26 04:16:58;;;;;;;42.60;26.55;;;10.50;98.30;;;;;;5167207;23;20789;-82
2021/10/26 04:19:01;;;;;;;46.87;30.67;;;10.50;98.30;;;;;;5176286;22;20256;-82
2021/10/26 04:21:05;;;;;;;48.83;28.02;;;10.50;98.30;;;;;;5176910;22;20505;-83
2021/10/26 04:23:08;;;;;;;46.63;28.20;;;10.50;98.30;;;;;;5168376;22;20428;-82
2021/10/26 04:25:11;;;;;;;45.90;28.40;;;10.50;98.30;;;;;;5176336;22;20916;-82
2021/10/26 04:27:15;;;;;;;46.03;29.10;;;10.50;98.30;;;;;;5170029;22;21210;-83
2021/10/26 04:29:18;;;;;;;44.53;29.93;;;10.60;98.30;;;;;;5176886;22;20432;-83
2021/10/26 04:31:21;;;;;;;49.70;28.87;;;10.60;98.30;;;;;;5175893;22;20434;-82
2021/10/26 04:33:24;;;;;;;42.55;27.45;;;10.60;98.30;;;;;;5176100;22;20806;-83
2021/10/26 04:35:27;;;;;;;49.50;28.90;;;10.60;98.30;;;;;;5175922;22;20256;-83
2021/10/26 04:37:31;;;;;;;51.37;31.20;;;10.60;98.30;;;;;;5175932;22;20445;-83
2021/10/26 04:39:35;;;;;;;50.40;29.57;;;10.60;98.30;;;;;;5175231;22;20482;-83
2021/10/26 04:41:38;;;;;;;49.00;29.40;;;10.60;98.30;;;;;;5174520;22;20478;-82
2021/10/26 04:43:42;;;;;;;48.83;29.83;;;10.60;98.30;;;;;;5165336;22;20427;-82
2021/10/26 04:45:47;;;;;;;48.80;28.97;;;10.60;98.30;;;;;;5173078;22;20182;-83
2021/10/26 18:26:30;;;;;;;19.75;11.75;;;11.90;98.30;;;;;;5091354;23;20407;-83
2021/10/26 20:39:08;;;;;;;27.27;16.40;;;11.90;98.30;;;;;;5125867;23;20483;-86
2021/10/26 20:41:11;;;;;;;29.43;17.00;;;11.90;98.30;;;;;;5126573;23;20449;-82
2021/10/26 20:43:17;;;;;;;28.77;17.20;;;11.90;98.30;;;;;;5169471;22;20418;-82
2021/10/26 20:47:45;;;;;;;36.97;17.70;;;11.90;98.30;;;;;;5202679;22;20450;-82
2021/10/26 20:49:52;;;;;;;27.27;15.63;;;11.90;98.30;;;;;;5204596;22;20256;-82
2021/10/26 20:57:48;;;;;;;25.42;16.98;;;12.00;98.30;;;;;;5203827;22;20446;-83
2021/10/26 21:00:22;;;;;;;25.00;15.20;;;12.00;98.30;;;;;;5194713;22;20430;-83
2021/10/26 21:13:30;;;;;;;22.80;14.70;;;12.00;98.30;;;;;;5015640;21;5077152;-83
2021/10/26 21:15:39;;;;;;;30.00;18.30;;;12.00;98.30;;;;;;5259999;22;20203;-83
